createdAt,value
2023-03-26T00:02:36.000Z,6.69
2023-03-26T00:07:35.000Z,6.82
2023-03-26T00:12:36.000Z,7.03
2023-03-26T00:17:36.000Z,7.07
2023-03-26T00:22:35.000Z,6.93
2023-03-26T00:27:36.000Z,6.93
2023-03-26T00:32:35.000Z,6.81
2023-03-26T00:37:36.000Z,6.58
2023-03-26T00:42:35.000Z,6.47
2023-03-26T00:47:35.000Z,6.32
2023-03-26T00:52:36.000Z,6.34
2023-03-26T00:57:46.000Z,6.45
2023-03-26T01:02:35.000Z,6.6
2023-03-26T01:07:36.000Z,6.74
2023-03-26T01:12:35.000Z,6.79
2023-03-26T01:17:35.000Z,6.73
2023-03-26T01:22:36.000Z,6.42
2023-03-26T01:27:36.000Z,6.13
2023-03-26T01:32:36.000Z,5.9
2023-03-26T01:37:36.000Z,5.64
2023-03-26T01:42:35.000Z,5.64
2023-03-26T01:47:35.000Z,5.43
2023-03-26T01:52:36.000Z,5.15
2023-03-26T01:57:35.000Z,4.95
2023-03-26T02:02:36.000Z,5.02
2023-03-26T02:07:36.000Z,5.09
2023-03-26T02:12:35.000Z,4.99
2023-03-26T02:17:36.000Z,4.96
2023-03-26T02:22:35.000Z,5.07
2023-03-26T02:27:35.000Z,5.09
2023-03-26T02:32:38.000Z,5.15
2023-03-26T02:37:35.000Z,5.05
2023-03-26T02:42:36.000Z,4.99
2023-03-26T02:47:35.000Z,4.99
2023-03-26T02:52:36.000Z,5.07
2023-03-26T02:57:35.000Z,5.07
2023-03-26T03:02:36.000Z,5.03
2023-03-26T03:07:35.000Z,5.06
2023-03-26T03:12:35.000Z,5.15
2023-03-26T03:17:35.000Z,5.25
2023-03-26T03:22:36.000Z,5.27
2023-03-26T03:27:36.000Z,5.35
2023-03-26T03:32:36.000Z,5.35
2023-03-26T03:37:35.000Z,5.35
2023-03-26T03:42:35.000Z,5.4
2023-03-26T03:47:35.000Z,5.31
2023-03-26T03:52:36.000Z,5.28
2023-03-26T03:57:35.000Z,5.28
2023-03-26T04:02:36.000Z,5.32
2023-03-26T04:07:35.000Z,5.31
2023-03-26T04:12:35.000Z,5.36
2023-03-26T04:17:36.000Z,5.38
2023-03-26T04:22:36.000Z,5.58
2023-03-26T04:27:36.000Z,5.68
2023-03-26T04:32:36.000Z,5.72
2023-03-26T04:37:36.000Z,5.84
2023-03-26T04:42:36.000Z,5.94
2023-03-26T04:47:36.000Z,5.98
2023-03-26T04:52:35.000Z,6
2023-03-26T04:57:35.000Z,6.02
2023-03-26T05:02:35.000Z,6.1
2023-03-26T05:07:36.000Z,6.1
2023-03-26T05:12:35.000Z,6.15
2023-03-26T05:17:36.000Z,6.06
2023-03-26T05:22:35.000Z,5.93
2023-03-26T05:27:35.000Z,5.93
2023-03-26T05:32:36.000Z,6
2023-03-26T05:37:35.000Z,6.03
2023-03-26T05:42:36.000Z,6.05
2023-03-26T05:47:35.000Z,6.05
2023-03-26T05:52:36.000Z,6.08
2023-03-26T05:57:35.000Z,6.1
2023-03-26T06:02:35.000Z,6.24
2023-03-26T06:07:35.000Z,6.49
2023-03-26T06:12:35.000Z,6.59
2023-03-26T06:17:35.000Z,6.59
2023-03-26T06:22:36.000Z,6.62
2023-03-26T06:27:35.000Z,6.58
2023-03-26T06:32:35.000Z,6.53
2023-03-26T06:37:36.000Z,6.5
2023-03-26T06:43:19.000Z,6.5
2023-03-26T06:47:35.000Z,6.49
2023-03-26T06:52:35.000Z,6.48
2023-03-26T06:57:36.000Z,6.49
2023-03-26T07:02:35.000Z,6.58
2023-03-26T07:07:35.000Z,6.67
2023-03-26T07:12:36.000Z,6.81
2023-03-26T07:17:36.000Z,6.92
2023-03-26T07:22:36.000Z,7.16
2023-03-26T07:27:36.000Z,7.16
2023-03-26T07:32:35.000Z,7.21
2023-03-26T07:37:35.000Z,7.41
2023-03-26T07:42:35.000Z,7.56
2023-03-26T07:47:36.000Z,7.64
2023-03-26T07:52:35.000Z,7.54
2023-03-26T07:57:36.000Z,7.54
2023-03-26T08:02:36.000Z,7.57
2023-03-26T08:07:37.000Z,7.44
2023-03-26T08:12:36.000Z,7.23
2023-03-26T08:17:35.000Z,7.14
2023-03-26T08:22:35.000Z,7.45
2023-03-26T08:27:36.000Z,7.5
2023-03-26T08:32:35.000Z,7.5
2023-03-26T08:37:36.000Z,7.43
2023-03-26T08:42:35.000Z,7.48
2023-03-26T08:47:36.000Z,7.5
2023-03-26T08:52:36.000Z,7.52
2023-03-26T08:57:36.000Z,7.62
2023-03-26T09:02:36.000Z,7.7
2023-03-26T09:07:36.000Z,7.59
2023-03-26T09:12:36.000Z,7.55
2023-03-26T09:17:36.000Z,7.55
2023-03-26T09:22:35.000Z,7.58
2023-03-26T09:27:36.000Z,7.51
2023-03-26T09:32:36.000Z,7.67
2023-03-26T09:37:36.000Z,7.84
2023-03-26T09:42:36.000Z,7.92
2023-03-26T09:47:36.000Z,7.92
2023-03-26T09:52:35.000Z,7.98
2023-03-26T09:57:36.000Z,7.94
2023-03-26T10:02:57.000Z,8.02
2023-03-26T10:07:36.000Z,8.06
2023-03-26T10:12:35.000Z,8.2
2023-03-26T10:17:36.000Z,8.29
2023-03-26T10:22:38.000Z,8.22
2023-03-26T10:27:35.000Z,8.18
2023-03-26T10:32:36.000Z,8.13
2023-03-26T10:37:36.000Z,8.28
2023-03-26T10:42:35.000Z,8.32
2023-03-26T10:47:36.000Z,8.2
2023-03-26T10:52:36.000Z,8.11
2023-03-26T10:57:35.000Z,8.11
2023-03-26T11:02:40.000Z,8.12
2023-03-26T11:07:36.000Z,8.08
2023-03-26T11:12:38.000Z,8.07
2023-03-26T11:17:51.000Z,8.08
2023-03-26T11:22:35.000Z,8.13
2023-03-26T11:27:36.000Z,8.2
2023-03-26T11:32:36.000Z,8.33
2023-03-26T11:37:36.000Z,8.38
2023-03-26T11:42:36.000Z,8.37
2023-03-26T11:47:36.000Z,8.47
2023-03-26T11:52:35.000Z,8.53
2023-03-26T11:57:36.000Z,8.54
2023-03-26T12:02:35.000Z,8.6
2023-03-26T12:07:35.000Z,8.66
2023-03-26T12:12:36.000Z,8.66
2023-03-26T12:17:41.000Z,8.59
2023-03-26T12:22:35.000Z,8.52
2023-03-26T12:27:35.000Z,8.44
2023-03-26T12:32:49.000Z,8.5
2023-03-26T12:37:35.000Z,8.54
2023-03-26T12:45:02.000Z,8.64
2023-03-26T12:52:35.000Z,8.59
2023-03-26T12:57:35.000Z,8.64
2023-03-26T13:02:35.000Z,8.62
2023-03-26T13:07:36.000Z,8.65
2023-03-26T13:12:36.000Z,8.6
2023-03-26T13:17:35.000Z,8.6
2023-03-26T13:22:35.000Z,8.59
2023-03-26T13:27:36.000Z,8.59
2023-03-26T13:32:35.000Z,8.5
2023-03-26T13:37:36.000Z,8.46
2023-03-26T13:42:36.000Z,8.4
2023-03-26T13:47:35.000Z,8.29
2023-03-26T13:52:35.000Z,8.17
2023-03-26T13:57:35.000Z,8.13
2023-03-26T14:02:36.000Z,8.16
2023-03-26T14:07:36.000Z,8.09
2023-03-26T14:12:36.000Z,8.11
2023-03-26T14:17:35.000Z,8.02
2023-03-26T14:22:36.000Z,8.06
2023-03-26T14:27:35.000Z,8.03
2023-03-26T14:32:36.000Z,8.03
2023-03-26T14:37:38.000Z,7.99
2023-03-26T14:42:36.000Z,7.98
2023-03-26T14:47:36.000Z,8.01
2023-03-26T14:52:36.000Z,7.91
2023-03-26T14:57:36.000Z,7.94
2023-03-26T15:02:36.000Z,7.98
2023-03-26T15:07:36.000Z,7.86
2023-03-26T15:12:36.000Z,7.78
2023-03-26T15:17:36.000Z,7.84
2023-03-26T15:22:36.000Z,7.84
2023-03-26T15:27:35.000Z,7.83
2023-03-26T15:32:35.000Z,7.85
2023-03-26T15:37:35.000Z,7.84
2023-03-26T15:42:36.000Z,7.84
2023-03-26T15:47:35.000Z,7.83
2023-03-26T15:52:35.000Z,7.64
2023-03-26T15:57:36.000Z,7.66
2023-03-26T16:02:36.000Z,7.69
2023-03-26T16:07:36.000Z,7.72
2023-03-26T16:12:36.000Z,7.66
2023-03-26T16:17:35.000Z,7.58
2023-03-26T16:22:35.000Z,7.51
2023-03-26T16:27:36.000Z,7.51
2023-03-26T16:32:36.000Z,7.53
2023-03-26T16:37:35.000Z,7.52
2023-03-26T16:42:36.000Z,7.57
2023-03-26T16:47:36.000Z,7.42
2023-03-26T16:52:35.000Z,7.47
2023-03-26T16:57:36.000Z,7.52
2023-03-26T17:02:35.000Z,7.62
2023-03-26T17:07:35.000Z,7.62
2023-03-26T17:12:36.000Z,7.53
2023-03-26T17:17:35.000Z,7.51
2023-03-26T17:22:36.000Z,7.52
2023-03-26T17:27:36.000Z,7.55
2023-03-26T17:32:35.000Z,7.56
2023-03-26T17:37:35.000Z,7.59
2023-03-26T17:42:35.000Z,7.6
2023-03-26T17:47:36.000Z,7.56
2023-03-26T17:52:36.000Z,7.56
2023-03-26T17:57:35.000Z,7.53
2023-03-26T18:02:35.000Z,7.56
2023-03-26T18:07:35.000Z,7.66
2023-03-26T18:13:09.000Z,7.7
2023-03-26T18:17:35.000Z,7.7
2023-03-26T18:22:35.000Z,7.66
2023-03-26T18:27:36.000Z,7.67
2023-03-26T18:32:35.000Z,7.59
2023-03-26T18:37:35.000Z,7.54
2023-03-26T18:42:36.000Z,7.59
2023-03-26T18:47:37.000Z,7.55
2023-03-26T18:52:36.000Z,7.61
2023-03-26T18:57:36.000Z,7.65
2023-03-26T19:02:35.000Z,7.68
2023-03-26T19:07:35.000Z,7.67
2023-03-26T19:12:36.000Z,7.66
2023-03-26T19:17:35.000Z,7.72
2023-03-26T19:22:35.000Z,7.72
2023-03-26T19:27:36.000Z,7.67
2023-03-26T19:32:35.000Z,7.7
2023-03-26T19:37:35.000Z,7.67
2023-03-26T19:42:36.000Z,7.71
2023-03-26T19:47:56.000Z,7.7
2023-03-26T19:52:35.000Z,7.76
2023-03-26T19:57:36.000Z,7.7
2023-03-26T20:02:36.000Z,7.6
2023-03-26T20:07:46.000Z,7.64
2023-03-26T20:12:36.000Z,7.57
2023-03-26T20:17:35.000Z,7.52
2023-03-26T20:22:36.000Z,7.54
2023-03-26T20:27:35.000Z,7.53
2023-03-26T20:32:37.000Z,7.53
2023-03-26T20:37:35.000Z,7.5
2023-03-26T20:42:36.000Z,7.51
2023-03-26T20:47:36.000Z,7.55
2023-03-26T20:52:35.000Z,7.55
2023-03-26T20:57:35.000Z,7.57
2023-03-26T21:02:36.000Z,7.57
2023-03-26T21:07:35.000Z,7.47
2023-03-26T21:12:35.000Z,7.5
2023-03-26T21:17:36.000Z,7.6
2023-03-26T21:22:35.000Z,7.6
2023-03-26T21:27:35.000Z,7.6
2023-03-26T21:32:35.000Z,7.48
2023-03-26T21:37:36.000Z,7.58
2023-03-26T21:42:35.000Z,7.58
2023-03-26T21:47:35.000Z,7.67
2023-03-26T21:52:35.000Z,7.65
2023-03-26T21:57:36.000Z,7.64
2023-03-26T22:02:36.000Z,7.66
2023-03-26T22:07:36.000Z,7.64
2023-03-26T22:12:35.000Z,7.51
2023-03-26T22:17:36.000Z,7.38
2023-03-26T22:22:36.000Z,7.39
2023-03-26T22:27:35.000Z,7.27
2023-03-26T22:32:42.000Z,7.23
2023-03-26T22:37:35.000Z,7.23
2023-03-26T22:42:36.000Z,7.16
2023-03-26T22:47:35.000Z,7.08
2023-03-26T22:52:36.000Z,7.05
2023-03-26T22:57:35.000Z,7.05
2023-03-26T23:02:36.000Z,6.98
2023-03-26T23:07:36.000Z,7.07
2023-03-26T23:12:36.000Z,6.94
2023-03-26T23:17:36.000Z,6.84
2023-03-26T23:22:36.000Z,6.78
2023-03-26T23:27:35.000Z,6.76
2023-03-26T23:32:35.000Z,6.69
2023-03-26T23:37:35.000Z,6.7
2023-03-26T23:42:39.000Z,6.67
2023-03-26T23:47:36.000Z,6.57
2023-03-26T23:52:36.000Z,6.43
2023-03-26T23:57:36.000Z,6.43
